Shoei Maru No.8 — JL5999 — position and weather

sailwx.info

Track history (hours):
 
Tides and Currents Weather Stations Pressure Air Temp Water Temp Dewpoint Dewpoint Depression Visibility Wind Speed Wind Dir Waves Ship Positions

Shoei Maru No.8

Last reported at 2017-Oct-11 22:37 UTC. Time now 2017-Oct-19 14:41 UTC.
Position N 35°08' E 139°42'.

Length 62 m.

Type: Tanker. MMSI: 431500089.

Date/timePositionNaut miles runAvg speedWind from/ knotsBaromVisibWave heightAir tempDewpointWater temp
2017-Oct-11 22:37N 35°08' E 139°42'110.9
2017-Oct-11 22:30N 35°09' E 139°43'610.7
2017-Oct-11 21:59N 35°14' E 139°46'  
2017-Oct-08 20:51N 35°21' E 139°45'411.3
2017-Oct-08 20:29N 35°17' E 139°46'612.0
2017-Oct-08 20:00N 35°11' E 139°47'611.5
2017-Oct-08 19:29N 35°06' E 139°44'3 0.1
2017-Oct-07 05:51N 35°08' E 139°42'411.6
2017-Oct-07 05:30N 35°11' E 139°45'710.0
2017-Oct-07 04:49N 35°18' E 139°44'410.7
2017-Oct-07 04:29N 35°21' E 139°42'10 0.2
2017-Oct-05 03:52N 35°31' E 139°44'7 0.2
2017-Oct-03 22:16N 35°24' E 139°46'310.7
2017-Oct-03 22:00N 35°22' E 139°45'5 9.7
2017-Oct-03 21:29N 35°17' E 139°46'510.1
2017-Oct-03 21:00N 35°12' E 139°47'611.6
2017-Oct-03 20:30N 35°06' E 139°45'6 0.2
2017-Oct-02 09:20N 35°04' E 139°38'511.0
2017-Oct-02 08:53N 35°08' E 139°42'511.8
2017-Oct-02 08:30N 35°11' E 139°45'710.8
2017-Oct-02 07:52N 35°18' E 139°44'411.4
2017-Oct-02 07:30N 35°22' E 139°42'  
Track history (hours):
 
Tides and Currents Weather Stations Pressure Air Temp Water Temp Dewpoint Dewpoint Depression Visibility Wind Speed Wind Dir Waves Ship Positions

Shoei Maru No.8

Last reported at 2017-Oct-11 22:37 UTC. Time now 2017-Oct-19 14:41 UTC.
Position N 35°08' E 139°42'.

Length 62 m.

Type: Tanker. MMSI: 431500089.

Date/timePositionNaut miles runAvg speedWind from/ knotsBaromVisibWave heightAir tempDewpointWater temp
2017-Oct-11 22:37N 35°08' E 139°42'110.9
2017-Oct-11 22:30N 35°09' E 139°43'610.7
2017-Oct-11 21:59N 35°14' E 139°46'  
2017-Oct-08 20:51N 35°21' E 139°45'411.3
2017-Oct-08 20:29N 35°17' E 139°46'612.0
2017-Oct-08 20:00N 35°11' E 139°47'611.5
2017-Oct-08 19:29N 35°06' E 139°44'3 0.1
2017-Oct-07 05:51N 35°08' E 139°42'411.6
2017-Oct-07 05:30N 35°11' E 139°45'710.0
2017-Oct-07 04:49N 35°18' E 139°44'410.7
2017-Oct-07 04:29N 35°21' E 139°42'10 0.2
2017-Oct-05 03:52N 35°31' E 139°44'7 0.2
2017-Oct-03 22:16N 35°24' E 139°46'310.7
2017-Oct-03 22:00N 35°22' E 139°45'5 9.7
2017-Oct-03 21:29N 35°17' E 139°46'510.1
2017-Oct-03 21:00N 35°12' E 139°47'611.6
2017-Oct-03 20:30N 35°06' E 139°45'6 0.2
2017-Oct-02 09:20N 35°04' E 139°38'511.0
2017-Oct-02 08:53N 35°08' E 139°42'511.8
2017-Oct-02 08:30N 35°11' E 139°45'710.8
2017-Oct-02 07:52N 35°18' E 139°44'411.4
2017-Oct-02 07:30N 35°22' E 139°42'  

Dump ship's entire track history